createdAt,value
2024-05-09T00:00:42.635Z,94.9169
2024-05-09T00:01:43.811Z,95.1678
2024-05-09T00:02:44.679Z,95.3021
2024-05-09T00:03:46.072Z,95.3133
2024-05-09T00:04:47.088Z,95.2465
2024-05-09T00:05:47.792Z,95.2807
2024-05-09T00:06:48.457Z,95.2685
2024-05-09T00:07:49.009Z,95.2541
2024-05-09T00:08:49.670Z,95.1760
2024-05-09T00:09:51.355Z,94.9691
2024-05-09T00:10:52.078Z,94.9371
2024-05-09T00:11:52.775Z,95.0610
2024-05-09T00:12:53.258Z,95.1608
2024-05-09T00:13:53.969Z,95.1385
2024-05-09T00:14:54.490Z,95.2197
2024-05-09T00:15:56.359Z,95.2175
2024-05-09T00:16:57.170Z,95.2422
2024-05-09T00:17:57.997Z,95.2969
2024-05-09T00:18:58.936Z,95.3491
2024-05-09T00:19:59.703Z,95.3094
2024-05-09T00:21:00.594Z,95.3045
2024-05-09T00:22:01.483Z,95.3506
2024-05-09T00:23:02.221Z,95.3143
2024-05-09T00:24:03.478Z,95.2563
2024-05-09T00:25:04.194Z,95.2306
2024-05-09T00:26:04.877Z,95.1885
2024-05-09T00:27:05.775Z,95.2041
2024-05-09T00:28:09.055Z,95.1888
2024-05-09T00:29:10.055Z,95.1495
2024-05-09T00:30:14.509Z,95.2108
2024-05-09T00:31:18.346Z,95.1391
2024-05-09T00:32:19.480Z,95.0701
2024-05-09T00:33:20.855Z,95.0701
2024-05-09T00:34:22.148Z,95.0610
2024-05-09T00:35:23.623Z,95.0307
2024-05-09T00:36:24.765Z,95.0411
2024-05-09T00:37:25.841Z,95.1318
2024-05-09T00:38:26.989Z,95.1806
2024-05-09T00:39:28.163Z,95.2566
2024-05-09T00:40:35.766Z,95.3054
2024-05-09T00:41:36.639Z,95.4141
2024-05-09T00:42:38.805Z,95.3881
2024-05-09T00:43:40.062Z,95.3863
2024-05-09T00:44:41.318Z,95.3008
2024-05-09T00:45:42.607Z,95.3085
2024-05-09T00:46:43.905Z,95.3338
2024-05-09T00:47:45.201Z,95.3899
2024-05-09T00:48:46.552Z,95.4205
2024-05-09T00:49:47.664Z,95.5050
2024-05-09T00:50:48.854Z,95.5523
2024-05-09T00:51:49.824Z,95.6219
2024-05-09T00:52:50.892Z,95.7403
2024-05-09T00:53:51.856Z,95.7180
2024-05-09T00:54:52.736Z,95.7485
2024-05-09T00:55:53.581Z,95.8584
2024-05-09T00:56:54.258Z,95.9213
2024-05-09T00:57:55.082Z,95.9567
2024-05-09T00:58:55.841Z,95.9548
2024-05-09T00:59:56.906Z,95.8456
2024-05-09T01:00:57.508Z,95.8526
2024-05-09T01:01:58.295Z,95.8886
2024-05-09T01:02:59.132Z,95.9191
2024-05-09T01:03:59.834Z,95.9323
2024-05-09T01:05:00.562Z,95.9173
2024-05-09T01:06:01.178Z,95.9249
2024-05-09T01:07:01.811Z,95.9509
2024-05-09T01:08:02.453Z,95.8651
2024-05-09T01:09:03.026Z,95.9173
2024-05-09T01:10:05.578Z,95.9261
2024-05-09T01:11:07.881Z,95.8813
2024-05-09T01:12:08.606Z,95.8840
2024-05-09T01:13:09.158Z,95.8837
2024-05-09T01:14:09.616Z,95.8572
2024-05-09T01:15:10.028Z,95.8871
2024-05-09T01:16:10.431Z,95.7928
2024-05-09T01:17:10.867Z,95.7299
2024-05-09T01:18:12.408Z,95.7339
2024-05-09T01:19:14.390Z,95.6982
2024-05-09T01:20:20.216Z,95.5959
2024-05-09T01:21:21.526Z,95.5441
2024-05-09T01:22:21.816Z,95.5090
2024-05-09T01:23:22.131Z,95.4461
2024-05-09T01:24:22.517Z,95.4220
2024-05-09T01:25:22.818Z,95.2837
2024-05-09T01:26:23.053Z,95.1598
2024-05-09T01:27:23.596Z,95.0961
2024-05-09T01:28:23.847Z,95.0869
2024-05-09T01:29:24.233Z,95.1443
2024-05-09T01:30:31.836Z,95.1846
2024-05-09T01:31:31.165Z,95.2587
2024-05-09T01:32:31.627Z,95.3506
2024-05-09T01:33:33.273Z,95.3613
2024-05-09T01:34:33.960Z,95.3765
2024-05-09T01:35:34.286Z,95.3143
2024-05-09T01:36:34.682Z,95.2798
2024-05-09T01:37:34.833Z,95.2850
2024-05-09T01:38:35.263Z,95.3674
2024-05-09T01:39:35.730Z,95.3710
2024-05-09T01:40:38.930Z,95.4461
2024-05-09T01:41:40.860Z,95.4748
2024-05-09T01:42:41.076Z,95.4232
2024-05-09T01:43:41.887Z,95.3133
2024-05-09T01:44:42.136Z,95.2361
2024-05-09T01:45:42.415Z,95.2209
2024-05-09T01:46:42.698Z,95.0896
2024-05-09T01:47:43.159Z,95.0262
2024-05-09T01:48:44.558Z,95.0118
2024-05-09T01:49:44.989Z,94.9792
2024-05-09T01:50:45.494Z,95.1296
2024-05-09T01:51:46.023Z,95.0625
2024-05-09T01:52:46.277Z,94.8992
2024-05-09T01:53:46.505Z,94.9047
2024-05-09T01:54:46.697Z,94.9178
2024-05-09T01:55:46.979Z,94.6438
2024-05-09T01:56:47.337Z,94.7082
2024-05-09T01:57:47.599Z,94.8449
2024-05-09T01:58:47.781Z,94.7506
2024-05-09T01:59:48.008Z,94.7094
2024-05-09T02:00:48.319Z,94.7704
2024-05-09T02:01:56.632Z,94.7555
2024-05-09T02:02:54.946Z,94.7533
2024-05-09T02:03:55.412Z,94.7488
2024-05-09T02:04:56.158Z,94.4863
2024-05-09T02:05:56.517Z,94.4594
2024-05-09T02:06:57.132Z,94.5211
2024-05-09T02:07:57.392Z,94.7497
2024-05-09T02:08:57.546Z,94.5837
2024-05-09T02:09:58.110Z,94.3816
2024-05-09T02:10:58.532Z,94.4509
2024-05-09T02:11:59.086Z,94.5666
2024-05-09T02:12:59.334Z,94.5708
2024-05-09T02:13:59.700Z,94.6007
2024-05-09T02:14:59.934Z,94.7765
2024-05-09T02:16:00.217Z,94.5980
2024-05-09T02:17:00.556Z,94.4619
2024-05-09T02:18:01.121Z,94.5446
2024-05-09T02:19:01.739Z,94.5400
2024-05-09T02:20:02.115Z,94.4988
2024-05-09T02:21:02.720Z,94.4836
2024-05-09T02:22:02.950Z,94.4765
2024-05-09T02:23:03.305Z,94.5190
2024-05-09T02:24:03.627Z,94.4500
2024-05-09T02:25:03.841Z,94.2769
2024-05-09T02:26:04.497Z,94.2931
2024-05-09T02:27:04.741Z,94.4143
2024-05-09T02:28:05.080Z,94.0865
2024-05-09T02:29:05.393Z,93.8726
2024-05-09T02:30:15.150Z,93.9226
2024-05-09T02:31:13.510Z,94.0133
2024-05-09T02:32:14.104Z,94.1268
2024-05-09T02:33:15.002Z,94.2718
2024-05-09T02:34:16.310Z,94.1558
2024-05-09T02:35:16.604Z,94.2257
2024-05-09T02:36:16.771Z,94.3389
2024-05-09T02:37:16.937Z,94.2669
2024-05-09T02:38:18.221Z,94.3700
2024-05-09T02:39:18.438Z,94.2437
2024-05-09T02:40:25.665Z,94.1479
2024-05-09T02:41:25.977Z,94.1195
2024-05-09T02:42:27.204Z,94.0658
2024-05-09T02:43:27.464Z,94.0273
2024-05-09T02:44:27.763Z,94.0288
2024-05-09T02:45:28.065Z,94.1222
2024-05-09T02:46:28.287Z,94.2339
2024-05-09T02:47:28.808Z,93.9013
2024-05-09T02:48:29.149Z,93.6660
2024-05-09T02:49:29.573Z,93.9559
2024-05-09T02:50:37.036Z,94.1640
2024-05-09T02:51:36.306Z,94.2306
2024-05-09T02:52:36.596Z,94.2321
2024-05-09T02:53:36.903Z,94.3426
2024-05-09T02:54:37.241Z,94.4051
2024-05-09T02:55:37.533Z,94.4671
2024-05-09T02:56:37.991Z,94.5547
2024-05-09T02:57:38.413Z,94.6227
2024-05-09T02:58:38.795Z,94.7582
2024-05-09T02:59:39.078Z,94.7881
2024-05-09T03:00:41.666Z,94.7710
2024-05-09T03:01:45.743Z,94.7259
2024-05-09T03:02:46.164Z,94.7060
2024-05-09T03:03:46.559Z,94.6978
2024-05-09T03:04:47.024Z,94.5879
2024-05-09T03:05:47.495Z,94.5870
2024-05-09T03:06:47.945Z,94.5626
2024-05-09T03:07:48.124Z,94.6197
2024-05-09T03:08:48.420Z,94.6822
2024-05-09T03:09:48.606Z,94.5452
2024-05-09T03:10:49.097Z,94.5657
2024-05-09T03:11:49.510Z,94.5653
2024-05-09T03:12:49.814Z,94.6346
2024-05-09T03:13:50.024Z,94.6868
2024-05-09T03:14:50.297Z,94.7451
2024-05-09T03:15:50.722Z,94.7887
2024-05-09T03:16:51.066Z,94.7982
2024-05-09T03:17:51.696Z,94.7948
2024-05-09T03:18:52.075Z,94.7488
2024-05-09T03:19:52.413Z,94.6578
2024-05-09T03:20:52.766Z,94.6661
2024-05-09T03:21:52.943Z,94.7674
2024-05-09T03:22:56.323Z,94.8861
2024-05-09T03:23:57.513Z,94.8522
2024-05-09T03:24:57.731Z,94.7213
2024-05-09T03:25:58.057Z,94.7402
2024-05-09T03:26:58.441Z,94.7753
2024-05-09T03:27:58.686Z,94.8385
2024-05-09T03:28:58.969Z,94.5623
2024-05-09T03:29:59.157Z,94.6584
2024-05-09T03:30:59.321Z,94.7591
2024-05-09T03:31:59.732Z,94.6892
2024-05-09T03:33:00.341Z,94.6282
2024-05-09T03:34:00.827Z,94.7008
2024-05-09T03:35:01.087Z,94.6020
2024-05-09T03:36:01.249Z,94.3996
2024-05-09T03:37:01.531Z,94.2785
2024-05-09T03:38:01.777Z,94.4204
2024-05-09T03:39:02.097Z,94.4445
2024-05-09T03:40:02.875Z,94.4256
2024-05-09T03:41:03.271Z,94.4616
2024-05-09T03:42:03.612Z,94.4012
2024-05-09T03:43:03.830Z,94.3816
2024-05-09T03:44:04.083Z,94.4237
2024-05-09T03:45:04.328Z,94.5245
2024-05-09T03:46:04.515Z,94.6261
2024-05-09T03:47:04.785Z,94.6435
2024-05-09T03:48:05.522Z,94.3133
2024-05-09T03:49:05.893Z,94.0755
2024-05-09T03:50:11.962Z,94.3801
2024-05-09T03:51:12.509Z,94.2885
2024-05-09T03:52:12.809Z,94.3337
2024-05-09T03:53:13.184Z,94.2736
2024-05-09T03:54:13.528Z,94.1537
2024-05-09T03:55:13.725Z,94.2138
2024-05-09T03:56:14.020Z,94.2815
2024-05-09T03:57:14.213Z,94.4274
2024-05-09T03:58:14.564Z,94.5364
2024-05-09T03:59:14.896Z,94.6261
2024-05-09T04:00:21.950Z,94.6242
2024-05-09T04:01:21.414Z,94.6157
2024-05-09T04:02:21.811Z,94.7543
2024-05-09T04:03:22.565Z,94.8223
2024-05-09T04:04:22.959Z,94.8962
2024-05-09T04:05:23.192Z,94.9596
2024-05-09T04:06:23.418Z,95.0130
2024-05-09T04:07:23.631Z,94.9319
2024-05-09T04:08:23.901Z,94.9520
2024-05-09T04:09:24.166Z,95.0304
2024-05-09T04:10:31.181Z,95.1025
2024-05-09T04:11:30.467Z,95.0750
2024-05-09T04:12:30.844Z,95.1022
2024-05-09T04:13:31.020Z,94.9136
2024-05-09T04:14:31.319Z,94.7771
2024-05-09T04:15:31.866Z,94.7011
2024-05-09T04:16:32.344Z,94.6926
2024-05-09T04:17:33.006Z,94.8138
2024-05-09T04:18:33.451Z,94.7524
2024-05-09T04:19:33.722Z,94.6130
2024-05-09T04:20:39.007Z,94.4668
2024-05-09T04:21:40.760Z,94.6361
2024-05-09T04:22:52.957Z,94.6980
2024-05-09T04:23:53.162Z,94.6706
2024-05-09T04:24:53.295Z,94.4219
2024-05-09T04:26:05.285Z,94.4088
2024-05-09T04:27:05.389Z,94.5150
2024-05-09T04:28:17.367Z,94.5960
2024-05-09T04:29:17.494Z,94.3456
2024-05-09T04:30:26.221Z,94.1393
2024-05-09T04:31:24.540Z,94.3316
2024-05-09T04:32:25.467Z,94.3679
2024-05-09T04:33:25.802Z,94.4326
2024-05-09T04:34:26.121Z,94.3392
2024-05-09T04:35:26.372Z,94.3877
2024-05-09T04:36:26.568Z,94.5782
2024-05-09T04:37:26.670Z,94.4576
2024-05-09T04:38:26.672Z,94.1964
2024-05-09T04:39:26.817Z,94.2547
2024-05-09T04:40:33.396Z,94.3777
2024-05-09T04:41:34.028Z,94.5727
2024-05-09T04:42:34.175Z,94.6480
2024-05-09T04:43:34.337Z,94.7808
2024-05-09T04:44:34.607Z,94.6352
2024-05-09T04:45:35.072Z,94.5672
2024-05-09T04:46:35.479Z,94.6230
2024-05-09T04:47:35.861Z,94.7744
2024-05-09T04:48:36.221Z,94.6435
2024-05-09T04:49:37.504Z,94.4729
2024-05-09T04:50:39.307Z,94.3719
2024-05-09T04:51:40.356Z,94.0346
2024-05-09T04:52:40.510Z,93.9962
2024-05-09T04:53:40.936Z,94.2608
2024-05-09T04:54:41.258Z,93.9712
2024-05-09T04:55:41.438Z,94.0865
2024-05-09T04:56:41.562Z,94.1457
2024-05-09T04:57:41.754Z,94.1180
2024-05-09T04:58:42.128Z,94.1579
2024-05-09T04:59:42.284Z,94.1064
2024-05-09T05:00:42.613Z,94.3346
2024-05-09T05:01:42.779Z,94.6075
2024-05-09T05:02:43.229Z,94.6682
2024-05-09T05:03:43.596Z,94.6542
2024-05-09T05:04:43.985Z,94.6441
2024-05-09T05:05:45.441Z,94.6026
2024-05-09T05:06:46.348Z,94.5858
2024-05-09T05:07:46.504Z,94.4820
2024-05-09T05:08:46.718Z,94.5281
2024-05-09T05:09:46.847Z,94.3249
2024-05-09T05:10:47.710Z,94.2235
2024-05-09T05:11:48.619Z,94.3630
2024-05-09T05:12:48.763Z,94.4710
2024-05-09T05:13:48.852Z,94.5776
2024-05-09T05:14:49.511Z,94.5534
2024-05-09T05:15:50.536Z,94.6056
2024-05-09T05:16:50.568Z,94.4512
2024-05-09T05:18:02.753Z,94.3310
2024-05-09T05:19:02.946Z,94.4652
2024-05-09T05:20:04.707Z,94.5599
2024-05-09T05:21:05.032Z,94.5116
2024-05-09T05:22:05.129Z,94.3758
2024-05-09T05:23:05.205Z,94.3908
2024-05-09T05:24:05.285Z,94.3944
2024-05-09T05:25:05.361Z,94.3978
2024-05-09T05:26:17.309Z,94.3684
2024-05-09T05:27:17.330Z,94.2672
2024-05-09T05:28:29.270Z,94.0887
2024-05-09T05:29:29.398Z,94.2309
2024-05-09T05:30:34.443Z,94.3639
2024-05-09T05:31:36.467Z,94.2037
2024-05-09T05:32:36.583Z,94.1759
2024-05-09T05:33:36.944Z,94.2885
2024-05-09T05:34:37.044Z,94.2873
2024-05-09T05:35:37.196Z,94.3123
2024-05-09T05:36:37.299Z,94.3075
2024-05-09T05:37:37.374Z,94.3688
2024-05-09T05:38:37.523Z,94.4811
2024-05-09T05:39:37.532Z,94.5614
2024-05-09T05:40:38.764Z,94.6673
2024-05-09T05:41:40.077Z,94.4768
2024-05-09T05:42:40.131Z,94.5589
2024-05-09T05:43:40.315Z,94.4353
2024-05-09T05:44:40.452Z,94.2229
2024-05-09T05:45:40.562Z,94.1784
2024-05-09T05:46:41.659Z,94.2483
2024-05-09T05:47:42.139Z,93.8714
2024-05-09T05:48:42.495Z,93.8003
2024-05-09T05:49:42.683Z,93.7951
2024-05-09T05:50:42.855Z,94.0075
2024-05-09T05:51:43.176Z,94.0380
2024-05-09T05:52:43.440Z,93.8817
2024-05-09T05:53:43.555Z,94.0020
2024-05-09T05:54:43.705Z,94.1097
2024-05-09T05:55:43.890Z,94.2400
2024-05-09T05:56:44.141Z,94.2943
2024-05-09T05:57:44.367Z,94.1634
2024-05-09T05:58:44.575Z,93.4398
2024-05-09T05:59:44.800Z,93.6559
2024-05-09T06:00:45.044Z,93.7050
2024-05-09T06:01:45.472Z,93.8402
2024-05-09T06:02:45.868Z,93.7383
2024-05-09T06:03:47.335Z,93.9196
2024-05-09T06:04:47.646Z,94.3175
2024-05-09T06:05:47.866Z,94.3539
2024-05-09T06:06:48.115Z,94.2892
2024-05-09T06:07:49.287Z,94.1216
2024-05-09T06:08:49.388Z,94.0279
2024-05-09T06:09:50.652Z,94.3774
2024-05-09T06:10:50.805Z,94.3914
2024-05-09T06:11:52.151Z,94.1372
2024-05-09T06:12:52.130Z,93.1237
2024-05-09T06:13:52.236Z,93.0840
2024-05-09T06:14:52.407Z,93.3037
2024-05-09T06:15:52.454Z,93.7832
2024-05-09T06:16:54.102Z,93.7658
2024-05-09T06:17:55.752Z,93.8213
2024-05-09T06:18:56.567Z,94.0011
2024-05-09T06:19:56.615Z,94.0478
2024-05-09T06:20:56.851Z,93.9892
2024-05-09T06:21:56.919Z,93.6944
2024-05-09T06:22:56.926Z,93.7359
2024-05-09T06:23:56.984Z,93.4929
2024-05-09T06:25:08.814Z,93.1935
2024-05-09T06:26:20.716Z,92.4091
2024-05-09T06:27:32.577Z,92.6177
2024-05-09T06:28:32.560Z,92.6421
2024-05-09T06:29:44.384Z,92.8326
2024-05-09T06:30:44.341Z,92.7770
2024-05-09T06:31:59.495Z,93.0203
2024-05-09T06:33:00.366Z,92.5029
2024-05-09T06:34:12.536Z,91.9717
2024-05-09T06:35:12.602Z,92.1205
2024-05-09T06:36:13.521Z,92.2979
2024-05-09T06:37:25.362Z,92.1859
2024-05-09T06:38:37.268Z,92.0109
2024-05-09T06:39:37.183Z,91.8590
2024-05-09T06:40:49.034Z,91.6953
2024-05-09T06:42:00.823Z,91.8952
2024-05-09T06:43:12.682Z,91.8041
2024-05-09T06:44:12.695Z,91.2297
2024-05-09T06:45:12.716Z,90.9468
2024-05-09T06:46:24.525Z,90.2340
2024-05-09T06:47:36.534Z,90.3273
2024-05-09T06:48:36.767Z,89.1594
2024-05-09T06:49:36.815Z,90.0072
2024-05-09T06:50:38.347Z,90.0053
2024-05-09T06:51:39.594Z,89.7951
2024-05-09T06:52:41.517Z,89.9065
2024-05-09T06:53:41.486Z,90.0600
2024-05-09T06:54:41.577Z,89.6767
2024-05-09T06:55:41.428Z,90.1472
2024-05-09T06:56:53.211Z,90.1371
2024-05-09T06:58:04.938Z,89.6147
2024-05-09T06:59:16.743Z,89.5951
2024-05-09T07:00:35.599Z,89.7569
2024-05-09T07:01:35.287Z,88.8566
2024-05-09T07:02:47.066Z,89.6231
2024-05-09T07:03:47.135Z,90.4527
2024-05-09T07:04:47.241Z,91.0518
2024-05-09T07:05:48.569Z,91.3951
2024-05-09T07:06:50.937Z,90.1643
2024-05-09T07:07:50.923Z,89.0492
2024-05-09T07:08:52.448Z,88.7684
2024-05-09T07:09:52.626Z,89.6547
2024-05-09T07:10:52.784Z,90.3365
2024-05-09T07:11:52.984Z,90.2711
2024-05-09T07:12:53.234Z,90.0172
2024-05-09T07:13:53.207Z,89.3050
2024-05-09T07:14:53.583Z,90.0520
2024-05-09T07:15:53.516Z,89.1762
2024-05-09T07:17:05.404Z,89.4021
2024-05-09T07:18:05.497Z,88.4263
2024-05-09T07:19:05.686Z,89.8253
2024-05-09T07:20:08.963Z,89.9553
2024-05-09T07:21:09.366Z,89.8698
2024-05-09T07:22:21.156Z,90.2042
2024-05-09T07:23:32.905Z,89.5941
2024-05-09T07:24:44.778Z,89.6801
2024-05-09T07:25:56.587Z,90.2057
2024-05-09T07:27:08.266Z,90.7289
2024-05-09T07:28:19.960Z,91.0717
2024-05-09T07:29:32.989Z,90.4196
2024-05-09T07:30:35.171Z,90.2409
2024-05-09T07:31:35.215Z,89.7618
2024-05-09T07:32:47.096Z,89.2055
2024-05-09T07:33:47.148Z,89.2592
2024-05-09T07:34:47.192Z,88.8368
2024-05-09T07:35:58.933Z,89.5595
2024-05-09T07:37:10.643Z,89.8072
2024-05-09T07:38:22.512Z,88.5585
2024-05-09T07:39:22.670Z,88.6513
2024-05-09T07:40:36.644Z,88.6493
2024-05-09T07:41:37.486Z,88.6583
2024-05-09T07:42:37.541Z,88.9281
2024-05-09T07:43:50.276Z,88.9067
2024-05-09T07:44:51.277Z,89.3507
2024-05-09T07:46:48.234Z,89.0560
2024-05-09T07:48:14.696Z,88.8002
2024-05-09T07:49:45.087Z,89.2274
2024-05-09T07:53:08.679Z,88.3015
2024-05-09T07:53:33.658Z,88.7605
2024-05-09T07:53:47.320Z,89.1347
2024-05-09T07:54:49.818Z,89.0913
2024-05-09T07:55:51.072Z,89.0697
2024-05-09T07:56:51.221Z,87.8288
2024-05-09T07:57:51.609Z,87.5767
2024-05-09T07:58:52.172Z,89.0294
2024-05-09T07:59:52.294Z,88.8942
2024-05-09T08:00:52.379Z,89.5314
2024-05-09T08:01:52.464Z,87.3664
2024-05-09T08:02:52.730Z,87.3664
2024-05-09T08:03:53.090Z,88.3903
2024-05-09T08:04:53.295Z,87.3066
2024-05-09T08:05:54.453Z,87.0936
2024-05-09T08:06:54.568Z,87.1849
2024-05-09T08:07:55.583Z,86.9883
2024-05-09T08:09:11.116Z,85.8826
2024-05-09T08:10:15.471Z,86.5373
2024-05-09T08:11:18.933Z,86.1610
2024-05-09T08:12:30.847Z,86.9312
2024-05-09T08:13:42.585Z,86.0375
2024-05-09T08:14:56.198Z,85.1110
2024-05-09T08:16:07.972Z,85.7832
2024-05-09T08:17:19.800Z,87.8200
2024-05-09T08:18:31.883Z,85.8966
2024-05-09T08:19:32.006Z,86.7802
2024-05-09T08:20:43.727Z,86.7890
2024-05-09T08:21:55.540Z,86.6964
2024-05-09T08:23:07.336Z,88.2475
2024-05-09T08:24:19.128Z,87.7086
2024-05-09T08:25:30.916Z,87.6633
2024-05-09T08:26:42.682Z,87.5621
2024-05-09T08:27:54.452Z,87.8620
2024-05-09T08:28:54.505Z,87.8953
2024-05-09T08:31:17.970Z,88.5501
2024-05-09T08:32:29.938Z,88.6727
2024-05-09T08:33:31.236Z,88.7266
2024-05-09T08:34:31.216Z,87.8907
2024-05-09T08:35:31.293Z,88.1721
2024-05-09T08:36:43.163Z,87.3421
2024-05-09T08:37:43.278Z,87.7000
2024-05-09T08:38:43.386Z,88.1367
2024-05-09T08:39:43.369Z,88.0980
2024-05-09T08:40:43.433Z,87.8947
2024-05-09T08:41:44.359Z,86.8003
2024-05-09T08:42:56.166Z,87.7862
2024-05-09T08:44:07.884Z,88.4820
2024-05-09T08:45:19.617Z,88.4942
2024-05-09T08:46:31.361Z,88.2864
2024-05-09T08:47:31.787Z,87.9503
2024-05-09T08:48:33.095Z,87.5596
2024-05-09T08:49:33.263Z,87.6347
2024-05-09T08:50:38.535Z,86.3209
2024-05-09T08:51:41.058Z,86.9517
2024-05-09T08:52:41.093Z,86.6346
2024-05-09T08:53:41.052Z,87.3445
2024-05-09T08:54:52.846Z,85.3193
2024-05-09T08:56:04.670Z,84.7977
2024-05-09T08:57:16.523Z,84.5922
2024-05-09T08:58:16.797Z,84.7501
2024-05-09T08:59:16.831Z,84.9357
2024-05-09T09:00:35.948Z,85.3170
2024-05-09T09:01:34.398Z,87.2474
2024-05-09T09:02:34.694Z,85.7197
2024-05-09T09:03:34.815Z,84.0934
2024-05-09T09:04:34.955Z,84.5170
2024-05-09T09:05:46.750Z,84.0683
2024-05-09T09:06:59.767Z,84.6268
2024-05-09T09:08:00.294Z,85.8125
2024-05-09T09:09:12.302Z,84.5930
2024-05-09T09:10:29.884Z,85.8991
2024-05-09T09:11:31.614Z,85.7365
2024-05-09T09:12:31.620Z,86.7112
2024-05-09T09:13:43.437Z,85.8432
2024-05-09T09:14:55.183Z,85.3190
2024-05-09T09:16:07.045Z,85.1314
2024-05-09T09:17:07.003Z,85.0141
2024-05-09T09:18:19.272Z,86.0395
2024-05-09T09:19:19.432Z,86.0386
2024-05-09T09:20:26.269Z,86.5577
2024-05-09T09:21:25.286Z,86.7631
2024-05-09T09:22:38.094Z,85.9436
2024-05-09T09:23:38.037Z,84.9293
2024-05-09T09:24:49.895Z,85.1461
2024-05-09T09:26:01.751Z,85.0670
2024-05-09T09:27:13.606Z,85.6870
2024-05-09T09:28:25.427Z,85.6413
2024-05-09T09:29:37.211Z,85.2415
2024-05-09T09:30:48.973Z,84.8989
2024-05-09T09:32:00.701Z,84.6171
2024-05-09T09:33:12.550Z,84.7868
2024-05-09T09:34:24.642Z,84.4371
2024-05-09T09:35:24.556Z,84.0479
2024-05-09T09:36:36.292Z,83.5060
2024-05-09T09:37:47.984Z,83.3247
2024-05-09T09:38:59.758Z,84.4020
2024-05-09T09:40:13.311Z,83.3293
2024-05-09T09:41:13.609Z,84.6567
2024-05-09T09:42:25.299Z,82.5432
2024-05-09T09:43:37.110Z,81.5206
2024-05-09T09:44:57.794Z,83.4936
2024-05-09T09:45:54.712Z,84.6696
2024-05-09T09:47:07.120Z,84.7229
2024-05-09T09:48:07.036Z,82.7253
2024-05-09T09:49:19.826Z,83.2893
2024-05-09T09:50:34.572Z,84.0991
2024-05-09T09:51:35.447Z,83.2505
2024-05-09T09:52:35.395Z,83.4418
2024-05-09T09:53:47.208Z,82.4414
2024-05-09T09:54:58.994Z,83.6673
2024-05-09T09:55:58.975Z,81.7319
2024-05-09T09:57:10.636Z,83.7062
2024-05-09T09:58:22.395Z,80.2787
2024-05-09T09:59:34.177Z,80.4969
2024-05-09T10:00:46.328Z,80.2449
2024-05-09T10:01:46.338Z,81.0034
2024-05-09T10:02:58.084Z,81.8235
2024-05-09T10:04:09.812Z,79.2269
2024-05-09T10:05:21.754Z,80.8075
2024-05-09T10:06:21.670Z,81.2543
2024-05-09T10:07:22.508Z,80.3680
2024-05-09T10:08:34.164Z,77.7239
2024-05-09T10:09:45.895Z,78.3134
2024-05-09T10:10:58.668Z,78.2350
2024-05-09T10:12:10.402Z,76.4518
2024-05-09T10:13:22.054Z,76.1194
2024-05-09T10:14:33.702Z,77.3322
2024-05-09T10:15:34.580Z,78.4735
2024-05-09T10:16:46.198Z,78.6567
2024-05-09T10:17:57.908Z,78.3777
2024-05-09T10:19:09.671Z,78.9995
2024-05-09T10:20:27.715Z,78.9848
2024-05-09T10:21:27.923Z,77.4597
2024-05-09T10:22:39.529Z,76.1346
2024-05-09T10:23:51.209Z,78.6806
2024-05-09T10:25:04.821Z,77.6204
2024-05-09T10:26:05.922Z,75.2178
2024-05-09T10:27:06.127Z,76.1465
2024-05-09T10:28:17.788Z,76.9024
2024-05-09T10:29:18.797Z,76.0427
2024-05-09T10:30:35.801Z,76.8963
2024-05-09T10:31:36.246Z,75.2810
2024-05-09T10:32:47.959Z,75.1982
2024-05-09T10:33:59.995Z,76.7493
2024-05-09T10:35:00.082Z,75.0909
2024-05-09T10:36:00.009Z,73.2897
2024-05-09T10:37:11.623Z,74.1774
2024-05-09T10:38:23.202Z,76.9571
2024-05-09T10:39:34.940Z,77.4347
2024-05-09T10:40:46.526Z,74.5462
2024-05-09T10:41:58.189Z,74.0927
2024-05-09T10:43:09.838Z,75.1970
2024-05-09T10:44:21.359Z,75.0016
2024-05-09T10:45:32.957Z,76.2936
2024-05-09T10:46:44.553Z,75.9210
2024-05-09T10:47:56.377Z,77.1962
2024-05-09T10:49:08.186Z,77.8548
2024-05-09T10:50:25.552Z,77.2330
2024-05-09T10:51:25.773Z,79.3423
2024-05-09T10:52:37.352Z,78.9171
2024-05-09T10:53:48.954Z,78.4932
2024-05-09T10:55:01.694Z,76.8686
2024-05-09T10:56:04.041Z,77.8247
2024-05-09T10:57:15.591Z,77.1990
2024-05-09T10:58:27.238Z,77.7849
2024-05-09T10:59:38.950Z,77.1008
2024-05-09T11:00:50.582Z,76.3923
2024-05-09T11:02:02.415Z,77.0649
2024-05-09T11:03:14.043Z,74.4383
2024-05-09T11:04:25.714Z,75.9014
2024-05-09T11:05:37.563Z,77.0507
2024-05-09T11:06:37.498Z,76.6610
2024-05-09T11:07:37.447Z,75.2938
2024-05-09T11:08:49.055Z,75.3084
2024-05-09T11:10:00.801Z,76.4322
2024-05-09T11:11:12.463Z,72.4971
2024-05-09T11:12:24.987Z,72.1709
2024-05-09T11:13:24.984Z,75.5447
2024-05-09T11:14:36.570Z,73.4488
2024-05-09T11:15:48.213Z,74.4722
2024-05-09T11:16:59.970Z,74.6337
2024-05-09T11:18:11.792Z,72.8074
2024-05-09T11:19:11.787Z,74.0209
2024-05-09T11:20:29.444Z,72.8097
2024-05-09T11:21:29.312Z,72.1746
2024-05-09T11:22:41.627Z,72.8756
2024-05-09T11:23:41.834Z,72.8475
2024-05-09T11:24:41.703Z,74.4936
2024-05-09T11:25:53.390Z,73.7316
2024-05-09T11:27:05.031Z,73.8732
2024-05-09T11:28:16.833Z,72.2891
2024-05-09T11:29:19.236Z,69.3376
2024-05-09T11:30:26.559Z,70.8742
2024-05-09T11:31:25.450Z,68.9717
2024-05-09T11:32:25.528Z,70.0194
2024-05-09T11:33:25.492Z,73.2140
2024-05-09T11:34:37.095Z,71.5262
2024-05-09T11:35:48.713Z,71.2604
2024-05-09T11:37:00.433Z,72.8725
2024-05-09T11:38:12.088Z,73.0335
2024-05-09T11:39:23.907Z,74.8180
2024-05-09T11:40:25.998Z,71.7043
2024-05-09T11:41:29.323Z,73.0745
2024-05-09T11:42:40.873Z,72.1152
2024-05-09T11:43:52.617Z,73.3649
2024-05-09T11:45:04.147Z,74.3356
2024-05-09T11:46:15.903Z,73.0480
2024-05-09T11:47:27.588Z,72.7952
2024-05-09T11:48:39.380Z,71.4928
2024-05-09T11:49:39.416Z,72.5628
2024-05-09T11:50:51.064Z,74.2013
2024-05-09T11:52:02.710Z,75.1390
2024-05-09T11:53:14.265Z,73.1235
2024-05-09T11:54:25.821Z,71.5427
2024-05-09T11:55:37.334Z,73.9946
2024-05-09T11:56:48.986Z,74.2463
2024-05-09T11:58:00.611Z,75.1865
2024-05-09T11:59:12.271Z,74.3369
2024-05-09T12:00:33.564Z,74.8686
2024-05-09T12:01:29.938Z,73.4582
2024-05-09T12:02:29.909Z,76.1617
2024-05-09T12:03:41.682Z,75.5004
2024-05-09T12:04:53.424Z,77.0927
2024-05-09T12:05:53.325Z,77.3559
2024-05-09T12:07:05.043Z,74.8424
2024-05-09T12:08:16.684Z,73.9081
2024-05-09T12:09:28.395Z,74.8196
2024-05-09T12:10:40.127Z,74.6593
2024-05-09T12:11:51.919Z,74.6507
2024-05-09T12:13:05.549Z,73.6566
2024-05-09T12:14:06.909Z,73.3175
2024-05-09T12:15:18.578Z,72.3412
2024-05-09T12:16:30.337Z,71.9972
2024-05-09T12:17:31.228Z,73.2268
2024-05-09T12:18:31.178Z,69.4649
2024-05-09T12:19:42.831Z,71.0587
2024-05-09T12:20:54.622Z,75.2061
2024-05-09T12:22:06.286Z,73.9526
2024-05-09T12:23:17.883Z,71.6724
2024-05-09T12:24:29.508Z,72.5533
2024-05-09T12:25:41.237Z,71.3128
2024-05-09T12:26:52.945Z,72.9666
2024-05-09T12:28:04.647Z,72.5678
2024-05-09T12:29:16.280Z,70.8372
2024-05-09T12:30:35.760Z,70.9720
2024-05-09T12:31:34.349Z,71.1369
2024-05-09T12:32:46.531Z,71.9977
2024-05-09T12:33:46.541Z,70.8217
2024-05-09T12:34:46.427Z,68.9610
2024-05-09T12:35:58.158Z,68.6201
2024-05-09T12:37:10.176Z,66.8287
2024-05-09T12:38:10.127Z,66.4073
2024-05-09T12:39:21.784Z,67.6689
2024-05-09T12:40:36.971Z,67.8409
2024-05-09T12:41:39.271Z,69.3321
2024-05-09T12:42:40.002Z,68.9332
2024-05-09T12:43:51.569Z,69.6099
2024-05-09T12:45:03.199Z,70.1945
2024-05-09T12:46:14.923Z,71.5338
2024-05-09T12:47:15.192Z,71.3494
2024-05-09T12:48:27.156Z,70.5450
2024-05-09T12:49:27.164Z,70.5214
2024-05-09T12:50:32.214Z,69.1722
2024-05-09T12:51:33.327Z,67.4958
2024-05-09T12:52:45.096Z,68.7424
2024-05-09T12:53:45.942Z,69.4157
2024-05-09T12:54:57.703Z,66.0657
2024-05-09T12:56:01.843Z,65.3388
2024-05-09T12:57:03.485Z,66.8125
2024-05-09T12:58:15.485Z,67.1305